Time;durP1;ratioP1;P1;durP2;ratioP2;P2;SDS_P1;SDS_P2;PMS_P1;PMS_P2;Temp;Humidity;BMP_temperature;BMP_pressure;BME280_temperature;BME280_humidity;BME280_pressure;Samples;Min_cycle;Max_cycle;Signal;HPM_P1;HPM_P2
2022/05/22 00:00:14;;;;;;;0.40;0.40;;;;;;;-140.05;100.00;61859.38;4972339;28;20245;-75
2022/05/22 00:02:42;;;;;;;0.77;0.77;;;;;;;-140.05;100.00;61859.38;4972667;28;20282;-73
2022/05/22 00:05:12;;;;;;;0.43;0.43;;;;;;;-140.05;100.00;61859.38;4971975;28;20295;-71
2022/05/22 00:07:41;;;;;;;0.30;0.30;;;;;;;-140.05;100.00;61859.38;4972157;28;20233;-70
2022/05/22 00:10:08;;;;;;;7.53;1.90;;;;;;;-140.05;100.00;61859.38;4972032;28;20341;-76
2022/05/22 00:12:35;;;;;;;0.50;0.50;;;;;;;-140.05;100.00;61859.38;4971834;28;20572;-72
2022/05/22 00:15:03;;;;;;;0.27;0.27;;;;;;;-140.05;100.00;61859.38;4972079;28;20269;-70
2022/05/22 00:17:30;;;;;;;0.20;0.20;;;;;;;-140.05;100.00;61859.38;4972125;28;20207;-76
2022/05/22 00:19:57;;;;;;;1.20;0.97;;;;;;;-140.05;100.00;61859.38;4971795;28;20202;-72
2022/05/22 00:22:24;;;;;;;0.30;0.30;;;;;;;-140.05;100.00;61859.38;4971403;28;20243;-71
2022/05/22 00:24:52;;;;;;;0.60;0.60;;;;;;;-140.05;100.00;61859.38;4971875;28;20218;-70
2022/05/22 00:27:19;;;;;;;1.03;1.03;;;;;;;-140.05;100.00;61859.38;4971424;28;20277;-69
2022/05/22 00:29:46;;;;;;;0.30;0.30;;;;;;;-140.05;100.00;61859.38;4971371;28;20198;-71
2022/05/22 00:32:12;;;;;;;0.53;0.53;;;;;;;-140.05;100.00;61859.38;4971387;28;20223;-70
2022/05/22 00:34:40;;;;;;;0.10;0.10;;;;;;;-140.05;100.00;61859.38;4971153;28;20253;-69
2022/05/22 00:37:07;;;;;;;0.20;0.20;;;;;;;-140.05;100.00;61859.38;4971464;28;20199;-68
2022/05/22 00:39:35;;;;;;;0.40;0.40;;;;;;;-140.05;100.00;61859.38;4971282;28;20573;-73
2022/05/22 00:42:13;;;;;;;0.43;0.43;;;;;;;-140.05;100.00;61859.38;4971316;28;20214;-75
2022/05/22 00:44:42;;;;;;;0.67;0.67;;;;;;;-140.05;100.00;61859.38;4971072;28;20195;-70
2022/05/22 00:47:08;;;;;;;0.30;0.30;;;;;;;-140.05;100.00;61859.38;4971435;28;20248;-76
2022/05/22 00:49:41;;;;;;;0.67;0.67;;;;;;;-140.05;100.00;61859.38;4970195;28;20250;-71
2022/05/22 00:52:27;;;;;;;0.10;0.10;;;;;;;-140.05;100.00;61859.38;4953703;28;20314;-73
2022/05/22 00:55:08;;;;;;;0.30;0.30;;;;;;;-140.05;100.00;61859.38;4971000;28;20575;-73
2022/05/22 00:57:57;;;;;;;1.57;0.83;;;;;;;-140.05;100.00;61859.38;4953215;28;20211;-71
2022/05/22 01:00:28;;;;;;;0.27;0.27;;;;;;;-140.05;100.00;61859.38;4971032;28;20203;-72
2022/05/22 01:05:49;;;;;;;0.37;0.37;;;;;;;-140.05;100.00;61859.38;4971105;28;20239;-74
2022/05/22 01:08:16;;;;;;;0.67;0.67;;;;;;;-140.05;100.00;61859.38;4953579;28;20586;-74
2022/05/22 01:10:48;;;;;;;1.90;0.90;;;;;;;-140.05;100.00;61859.38;4970363;28;20203;-73
2022/05/22 01:13:20;;;;;;;0.23;0.23;;;;;;;-140.05;100.00;61859.38;4952949;28;20303;-69
2022/05/22 01:15:47;;;;;;;0.30;0.30;;;;;;;-140.05;100.00;61859.38;4953241;28;20218;-74
2022/05/22 01:18:14;;;;;;;0.30;0.30;;;;;;;-140.05;100.00;61859.38;4953481;28;20199;-70
2022/05/22 01:20:51;;;;;;;0.30;0.30;;;;;;;-140.05;100.00;61859.38;4952789;28;20294;-71
2022/05/22 01:23:23;;;;;;;0.73;0.70;;;;;;;-140.05;100.00;61859.38;4953321;28;20221;-68
2022/05/22 01:25:50;;;;;;;0.57;0.57;;;;;;;-140.05;100.00;61859.38;4953224;28;20265;-73
2022/05/22 01:28:19;;;;;;;0.57;0.47;;;;;;;-140.05;100.00;61859.38;4953073;28;20211;-72
2022/05/22 01:30:47;;;;;;;0.20;0.20;;;;;;;-140.05;100.00;61859.38;4953381;28;20294;-70
2022/05/22 01:33:14;;;;;;;0.20;0.20;;;;;;;-140.05;100.00;61859.38;4953130;28;20712;-71
2022/05/22 01:35:41;;;;;;;0.20;0.20;;;;;;;-140.05;100.00;61859.38;4951855;28;20289;-78
2022/05/22 01:38:10;;;;;;;0.20;0.20;;;;;;;-140.05;100.00;61859.38;4951879;28;20199;-71
2022/05/22 01:40:40;;;;;;;1.40;1.03;;;;;;;-140.05;100.00;61859.38;4951914;28;20207;-73
2022/05/22 01:43:07;;;;;;;0.47;0.43;;;;;;;-140.05;100.00;61859.38;4951801;28;20195;-71
2022/05/22 01:45:36;;;;;;;0.20;0.20;;;;;;;-140.05;100.00;61859.38;4970872;28;20923;-73
2022/05/22 01:48:03;;;;;;;0.27;0.27;;;;;;;-140.05;100.00;61859.38;4953576;28;20618;-72
2022/05/22 01:50:48;;;;;;;1.80;0.30;;;;;;;-140.05;100.00;61859.38;4953683;28;20261;-72
2022/05/22 01:53:18;;;;;;;1.07;0.47;;;;;;;-140.05;100.00;61859.38;4953497;28;20211;-76
2022/05/22 01:55:48;;;;;;;0.50;0.50;;;;;;;-140.05;100.00;61859.38;4955868;28;20358;-73
2022/05/22 01:58:15;;;;;;;0.53;0.53;;;;;;;-140.05;100.00;61859.38;4957936;28;20752;-73
2022/05/22 02:00:44;;;;;;;0.50;0.50;;;;;;;-140.05;100.00;61859.38;4959428;28;20205;-67
2022/05/22 02:03:11;;;;;;;0.30;0.30;;;;;;;-140.05;100.00;61859.38;4960897;28;20206;-68
2022/05/22 02:05:39;;;;;;;0.53;0.53;;;;;;;-140.05;100.00;61859.38;4957528;28;20307;-69
2022/05/22 02:08:24;;;;;;;0.50;0.50;;;;;;;-140.05;100.00;61859.38;4956963;28;20791;-74
2022/05/22 02:11:03;;;;;;;0.20;0.20;;;;;;;-140.05;100.00;61859.38;4956811;28;20700;-72
2022/05/22 02:13:34;;;;;;;0.30;0.30;;;;;;;-140.05;100.00;61859.38;4956471;28;20218;-71
2022/05/22 02:16:01;;;;;;;0.93;0.83;;;;;;;-140.05;100.00;61859.38;4956726;28;20211;-72
2022/05/22 02:18:31;;;;;;;0.20;0.20;;;;;;;-140.05;100.00;61859.38;4956605;28;20691;-72
2022/05/22 02:20:58;;;;;;;0.40;0.40;;;;;;;-140.05;100.00;61859.38;4952795;29;20669;-70
2022/05/22 02:23:28;;;;;;;0.20;0.20;;;;;;;-140.05;100.00;61859.38;4953293;29;20208;-68
2022/05/22 02:25:57;;;;;;;0.30;0.30;;;;;;;-140.05;100.00;61859.38;4953212;29;20210;-70
2022/05/22 02:28:25;;;;;;;0.70;0.70;;;;;;;-140.05;100.00;61859.38;4953210;29;20262;-71
2022/05/22 02:30:58;;;;;;;0.30;0.30;;;;;;;-140.05;100.00;61859.38;4953467;29;20211;-73
2022/05/22 02:33:26;;;;;;;0.30;0.30;;;;;;;-140.05;100.00;61859.38;4952876;28;20227;-76
2022/05/22 02:36:06;;;;;;;0.63;0.63;;;;;;;-140.05;100.00;61859.38;4952741;28;20206;-73
2022/05/22 02:38:35;;;;;;;0.40;0.40;;;;;;;-140.05;100.00;61859.38;4954548;28;20287;-73
2022/05/22 02:41:15;;;;;;;0.50;0.50;;;;;;;-140.05;100.00;61859.38;4952564;28;20207;-69
2022/05/22 02:43:48;;;;;;;0.47;0.47;;;;;;;-140.05;100.00;61859.38;4952754;28;20208;-72
2022/05/22 02:46:17;;;;;;;0.40;0.40;;;;;;;-140.05;100.00;61859.38;4952318;29;20211;-74
2022/05/22 02:48:46;;;;;;;0.10;0.10;;;;;;;-140.05;100.00;61859.38;4952942;28;20215;-71
2022/05/22 02:51:15;;;;;;;0.50;0.50;;;;;;;-140.05;100.00;61859.38;4954169;28;20227;-74
2022/05/22 02:53:43;;;;;;;1.40;0.83;;;;;;;-140.05;100.00;61859.38;4952706;28;20590;-74
2022/05/22 02:56:21;;;;;;;0.40;0.40;;;;;;;-140.05;100.00;61859.38;4954154;28;20199;-73
2022/05/22 02:59:07;;;;;;;0.20;0.20;;;;;;;-140.05;100.00;61859.38;4954547;28;20666;-73
2022/05/22 03:02:03;;;;;;;0.10;0.10;;;;;;;-140.05;100.00;61859.38;4941268;29;20238;-70
2022/05/22 03:04:32;;;;;;;0.30;0.20;;;;;;;-140.05;100.00;61859.38;4954508;28;20187;-70
2022/05/22 03:07:13;;;;;;;0.10;0.10;;;;;;;-140.05;100.00;61859.38;4953451;28;20215;-71
2022/05/22 03:09:44;;;;;;;0.20;0.20;;;;;;;-140.05;100.00;61859.38;4953070;28;20199;-76
2022/05/22 03:12:15;;;;;;;0.13;0.13;;;;;;;-140.05;100.00;61859.38;4953748;28;20291;-70
2022/05/22 03:14:48;;;;;;;0.33;0.33;;;;;;;-140.05;100.00;61859.38;4953797;28;20679;-71
2022/05/22 03:17:15;;;;;;;0.20;0.20;;;;;;;-140.05;100.00;61859.38;4952404;29;20208;-71
2022/05/22 03:20:03;;;;;;;0.10;0.10;;;;;;;-140.05;100.00;61859.38;4954027;28;20230;-72
2022/05/22 03:22:34;;;;;;;0.50;0.50;;;;;;;-140.05;100.00;61859.38;4956679;28;20705;-70
2022/05/22 03:25:03;;;;;;;0.20;0.20;;;;;;;-140.05;100.00;61859.38;4955331;28;20218;-68
2022/05/22 03:27:30;;;;;;;0.30;0.30;;;;;;;-140.05;100.00;61859.38;4955120;28;20203;-69
2022/05/22 03:29:58;;;;;;;0.13;0.13;;;;;;;-140.05;100.00;61859.38;4972869;28;20271;-68
2022/05/22 03:32:25;;;;;;;0.87;0.50;;;;;;;-140.05;100.00;61859.38;4955264;28;20211;-70
2022/05/22 03:34:56;;;;;;;2.07;0.77;;;;;;;-140.05;100.00;61859.38;4954494;28;20614;-69
2022/05/22 03:37:24;;;;;;;0.17;0.17;;;;;;;-140.05;100.00;61859.38;4972474;28;20203;-74
2022/05/22 03:39:54;;;;;;;0.20;0.20;;;;;;;-140.05;100.00;61859.38;4954503;28;20300;-68
2022/05/22 03:42:21;;;;;;;0.03;0.03;;;;;;;-140.05;100.00;61859.38;4972463;28;20231;-70
2022/05/22 03:44:49;;;;;;;0.10;0.10;;;;;;;-140.05;100.00;61859.38;4972444;28;20215;-68
2022/05/22 03:47:15;;;;;;;0.10;0.10;;;;;;;-140.05;100.00;61859.38;4955006;28;20206;-70
2022/05/22 03:50:04;;;;;;;0.10;0.10;;;;;;;-140.05;100.00;61859.38;4954306;28;20206;-71
2022/05/22 03:52:36;;;;;;;0.43;0.43;;;;;;;-140.05;100.00;61859.38;4955118;28;20285;-70
2022/05/22 03:55:11;;;;;;;0.10;0.10;;;;;;;-140.05;100.00;61859.38;4954817;28;20265;-69
2022/05/22 03:57:38;;;;;;;0.10;0.10;;;;;;;-140.05;100.00;61859.38;4954840;28;20203;-68
2022/05/22 04:00:10;;;;;;;0.20;0.20;;;;;;;-140.05;100.00;61859.38;4954607;28;20689;-72
2022/05/22 04:02:42;;;;;;;0.10;0.10;;;;;;;-140.05;100.00;61859.38;4971854;28;20712;-71
2022/05/22 04:05:12;;;;;;;0.73;0.50;;;;;;;-140.05;100.00;61859.38;4954809;28;20214;-70
2022/05/22 04:07:44;;;;;;;0.13;0.13;;;;;;;-140.05;100.00;61859.38;4971969;28;20201;-71
2022/05/22 04:10:16;;;;;;;0.20;0.20;;;;;;;-140.05;100.00;61859.38;4954115;28;20237;-68
2022/05/22 04:12:43;;;;;;;0.10;0.10;;;;;;;-140.05;100.00;61859.38;4971538;28;20207;-72
2022/05/22 04:15:14;;;;;;;0.77;0.53;;;;;;;-140.05;100.00;61859.38;4954086;28;20597;-71
2022/05/22 04:17:42;;;;;;;0.10;0.10;;;;;;;-140.05;100.00;61859.38;4971693;28;20286;-75
2022/05/22 04:20:18;;;;;;;0.23;0.23;;;;;;;-140.05;100.00;61859.38;4953457;28;20214;-76
2022/05/22 04:25:33;;;;;;;0.10;0.10;;;;;;;-140.05;100.00;61859.38;4954642;28;20221;-75
2022/05/22 04:28:00;;;;;;;0.10;0.10;;;;;;;-140.05;100.00;61859.38;4954108;28;20192;-76
2022/05/22 04:30:28;;;;;;;0.20;0.20;;;;;;;-140.05;100.00;61859.38;4971812;28;20581;-78
2022/05/22 04:33:02;;;;;;;0.50;0.50;;;;;;;-140.05;100.00;61859.38;4953515;28;20230;-76
2022/05/22 04:35:30;;;;;;;0.20;0.20;;;;;;;-140.05;100.00;61859.38;4954439;28;20265;-74
2022/05/22 04:38:02;;;;;;;0.53;0.53;;;;;;;-140.05;100.00;61859.38;4971873;28;20214;-74
2022/05/22 04:40:30;;;;;;;0.10;0.10;;;;;;;-140.05;100.00;61859.38;4954351;28;20242;-78
2022/05/22 04:42:57;;;;;;;1.50;1.00;;;;;;;-140.05;100.00;61859.38;4953648;28;20277;-73
2022/05/22 04:45:25;;;;;;;0.20;0.20;;;;;;;-140.05;100.00;61859.38;4954021;28;20231;-70
2022/05/22 04:48:02;;;;;;;0.10;0.10;;;;;;;-140.05;100.00;61859.38;4953666;28;20234;-70
2022/05/22 04:50:36;;;;;;;0.20;0.20;;;;;;;-140.05;100.00;61859.38;4954002;28;20296;-72
2022/05/22 04:53:26;;;;;;;0.10;0.10;;;;;;;-140.05;100.00;61859.38;4971823;28;20210;-70
2022/05/22 04:56:03;;;;;;;0.53;0.20;;;;;;;-140.05;100.00;61859.38;4971283;28;20198;-72
2022/05/22 04:58:36;;;;;;;0.30;0.30;;;;;;;-140.05;100.00;61859.38;4952283;28;20299;-73
2022/05/22 05:01:12;;;;;;;0.20;0.20;;;;;;;-140.05;100.00;61859.38;4952576;28;20263;-70
2022/05/22 05:03:53;;;;;;;0.10;0.10;;;;;;;-140.05;100.00;61859.38;4952761;28;20229;-73
2022/05/22 05:06:20;;;;;;;0.23;0.23;;;;;;;-140.05;100.00;61859.38;4952365;28;20202;-71
2022/05/22 05:08:51;;;;;;;0.27;0.27;;;;;;;-140.05;100.00;61859.38;4955379;28;20203;-73
2022/05/22 05:11:32;;;;;;;0.20;0.20;;;;;;;-140.05;100.00;61859.38;4952626;28;20666;-72
2022/05/22 05:14:03;;;;;;;0.20;0.20;;;;;;;-140.05;100.00;61859.38;4952720;28;20210;-71
2022/05/22 05:16:30;;;;;;;0.10;0.10;;;;;;;-140.05;100.00;61859.38;4953302;28;20203;-70
2022/05/22 05:19:02;;;;;;;0.10;0.10;;;;;;;-140.05;100.00;61859.38;4953532;28;20227;-70
2022/05/22 05:21:31;;;;;;;0.10;0.10;;;;;;;-140.05;100.00;61859.38;4950565;28;20231;-75
2022/05/22 05:24:01;;;;;;;0.10;0.10;;;;;;;-140.05;100.00;61859.38;4960949;28;20199;-72
2022/05/22 05:26:30;;;;;;;0.20;0.20;;;;;;;-140.05;100.00;61859.38;4956529;28;20230;-72
2022/05/22 05:29:05;;;;;;;0.20;0.20;;;;;;;-140.05;100.00;61859.38;4970518;28;20207;-70
2022/05/22 05:31:38;;;;;;;0.10;0.10;;;;;;;-140.05;100.00;61859.38;4969354;28;20266;-73
2022/05/22 05:34:08;;;;;;;0.20;0.20;;;;;;;-140.05;100.00;61859.38;4952667;28;20213;-72
2022/05/22 05:36:42;;;;;;;0.00;0.00;;;;;;;-140.05;100.00;61859.38;4952982;28;20207;-74
2022/05/22 05:39:28;;;;;;;0.30;0.30;;;;;;;-140.05;100.00;61859.38;4955990;28;20185;-73
2022/05/22 05:41:58;;;;;;;0.20;0.20;;;;;;;-140.05;100.00;61859.38;4953605;28;20198;-74
2022/05/22 05:44:44;;;;;;;0.30;0.30;;;;;;;-140.05;100.00;61859.38;4970157;28;20285;-72
2022/05/22 05:47:17;;;;;;;0.20;0.20;;;;;;;-140.05;100.00;61859.38;4951812;28;20636;-71
2022/05/22 05:50:00;;;;;;;0.20;0.20;;;;;;;-140.05;100.00;61859.38;4952676;28;20681;-71
2022/05/22 05:52:56;;;;;;;0.23;0.23;;;;;;;-140.05;100.00;61859.38;4966161;28;20207;-71
2022/05/22 05:55:42;;;;;;;0.20;0.20;;;;;;;-140.05;100.00;61859.38;4970505;28;20573;-70
2022/05/22 05:58:44;;;;;;;;;;;;;;;-140.05;100.00;61859.38;4952777;28;20209;-69
2022/05/22 06:01:24;;;;;;;;;;;;;;;-140.05;100.00;61859.38;4951817;28;19925;-68
2022/05/22 06:03:52;;;;;;;;;;;;;;;-140.05;100.00;61859.38;4970339;28;19958;-70
2022/05/22 06:06:19;;;;;;;;;;;;;;;-140.05;100.00;61859.38;4970810;28;19981;-71
2022/05/22 06:08:46;;;;;;;;;;;;;;;-140.05;100.00;61859.38;4953014;28;20407;-68
2022/05/22 06:11:43;;;;;;;;;;;;;;;-140.05;100.00;61859.38;4961166;28;20313;-67
2022/05/22 06:14:36;;;;;;;;;;;;;;;-140.05;100.00;61859.38;4966198;28;20409;-69
2022/05/22 06:17:04;;;;;;;;;;;;;;;-140.05;100.00;61859.38;4952973;28;19922;-75
2022/05/22 06:22:48;;;;;;;;;;;;;;;-140.05;100.00;61859.38;4952788;28;20401;-74
2022/05/22 06:25:35;;;;;;;;;;;;;;;-140.05;100.00;61859.38;4970219;28;19930;-70
2022/05/22 06:28:40;;;;;;;;;;;;;;;-140.05;100.00;61859.38;4909629;29;19930;-71
2022/05/22 06:31:33;;;;;;;;;;;;;;;-140.05;100.00;61859.38;4910214;29;20002;-70
2022/05/22 06:34:34;;;;;;;;;;;;;;;-140.05;100.00;61859.38;4947983;28;19948;-72
2022/05/22 06:37:13;;;;;;;;;;;;;;;-140.05;100.00;61859.38;4952563;28;19930;-70
2022/05/22 06:39:58;;;;;;;;;;;;;;;-140.05;100.00;61859.38;4970095;28;19928;-71
2022/05/22 06:42:54;;;;;;;;;;;;;;;-140.05;100.00;61859.38;4918148;28;19982;-75
2022/05/22 06:45:33;;;;;;;;;;;;;;;-140.05;100.00;61859.38;4973730;28;19953;-72
2022/05/22 06:48:03;;;;;;;;;;;;;;;-140.05;100.00;61859.38;4973501;28;19961;-73
2022/05/22 06:50:48;;;;;;;;;;;;;;;-140.05;100.00;61859.38;4974446;28;19929;-69
2022/05/22 06:53:27;;;;;;;;;;;;;;;-140.05;100.00;61859.38;4980954;28;20381;-72
2022/05/22 06:55:53;;;;;;;;;;;;;;;-140.05;100.00;61859.38;4992894;28;19921;-70
2022/05/22 06:58:39;;;;;;;;;;;;;;;-140.05;100.00;61859.38;4992556;28;20035;-72
2022/05/22 07:01:10;;;;;;;;;;;;;;;-140.05;100.00;61859.38;4992752;28;19921;-70
2022/05/22 07:04:05;;;;;;;;;;;;;;;-140.05;100.00;61859.38;4975221;28;19933;-70
2022/05/22 07:06:38;;;;;;;;;;;;;;;-140.05;100.00;61859.38;4993088;28;20385;-71
2022/05/22 07:09:10;;;;;;;;;;;;;;;-140.05;100.00;61859.38;4992898;28;19926;-64
2022/05/22 07:11:47;;;;;;;;;;;;;;;-140.05;100.00;61859.38;4992419;28;19987;-72
2022/05/22 07:14:28;;;;;;;;;;;;;;;-140.05;100.00;61859.38;4974496;28;20668;-72
2022/05/22 07:17:24;;;;;;;;;;;;;;;-140.05;100.00;61859.38;4974938;28;20016;-72
2022/05/22 07:20:18;;;;;;;;;;;;;;;-140.05;100.00;61859.38;4954885;28;19926;-67
2022/05/22 07:23:10;;;;;;;;;;;;;;;-140.05;100.00;61859.38;4989538;28;19932;-66
2022/05/22 07:26:05;;;;;;;;;;;;;;;-140.05;100.00;61859.38;4974448;28;19926;-70
2022/05/22 07:28:50;;;;;;;;;;;;;;;-140.05;100.00;61859.38;4975203;28;19933;-68
2022/05/22 07:31:27;;;;;;;;;;;;;;;-140.05;100.00;61859.38;4974436;28;19926;-64
2022/05/22 07:34:13;;;;;;;;;;;;;;;-140.05;100.00;61859.38;4992505;28;19944;-64
2022/05/22 07:37:18;;;;;;;;;;;;;;;-140.05;100.00;61859.38;4950513;29;20073;-69
2022/05/22 07:40:17;;;;;;;;;;;;;;;-140.05;100.00;61859.38;4940386;29;19926;-68
2022/05/22 07:43:16;;;;;;;;;;;;;;;-140.05;100.00;61859.38;4977296;28;19945;-68
2022/05/22 07:46:02;;;;;;;;;;;;;;;-140.05;100.00;61859.38;4974358;28;19922;-68
2022/05/22 07:48:47;;;;;;;;;;;;;;;-140.05;100.00;61859.38;4974407;28;19922;-67
2022/05/22 07:51:47;;;;;;;;;;;;;;;-140.05;100.00;61859.38;4964486;28;19932;-66
2022/05/22 07:54:35;;;;;;;;;;;;;;;-140.05;100.00;61859.38;4991183;28;20424;-65
2022/05/22 07:57:28;;;;;;;;;;;;;;;-140.05;100.00;61859.38;4961444;28;19975;-70
2022/05/22 08:00:17;;;;;;;;;;;;;;;-140.05;100.00;61859.38;4991486;28;19922;-68
2022/05/22 08:02:44;;;;;;;;;;;;;;;-140.05;100.00;61859.38;4991413;28;19921;-64
2022/05/22 08:05:17;;;;;;;;;;;;;;;-140.05;100.00;61859.38;4973885;28;19926;-73
2022/05/22 08:07:48;;;;;;;;;;;;;;;-140.05;100.00;61859.38;4973907;28;19925;-69
2022/05/22 08:10:27;;;;;;;;;;;;;;;-140.05;100.00;61859.38;4973800;28;19925;-68
2022/05/22 08:13:00;;;;;;;;;;;;;;;-140.05;100.00;61859.38;4973720;28;19925;-71
2022/05/22 08:15:32;;;;;;;;;;;;;;;-140.05;100.00;61859.38;4973594;28;19932;-76
2022/05/22 08:18:11;;;;;;;;;;;;;;;-140.05;100.00;61859.38;4973724;28;19984;-75
2022/05/22 08:20:39;;;;;;;;;;;;;;;-140.05;100.00;61859.38;4973426;28;20300;-70
2022/05/22 08:23:12;;;;;;;;;;;;;;;-140.05;100.00;61859.38;4973581;28;20012;-73
2022/05/22 08:25:57;;;;;;;;;;;;;;;-140.05;100.00;61859.38;4991169;28;20501;-73
2022/05/22 08:28:27;;;;;;;;;;;;;;;-140.05;100.00;61859.38;4973528;28;19980;-72
2022/05/22 08:30:53;;;;;;;;;;;;;;;-140.05;100.00;61859.38;4973080;28;20452;-71
2022/05/22 08:33:21;;;;;;;;;;;;;;;-140.05;100.00;61859.38;4973502;28;19948;-69
2022/05/22 08:35:49;;;;;;;;;;;;;;;-140.05;100.00;61859.38;4991003;28;20368;-74
2022/05/22 08:38:15;;;;;;;;;;;;;;;-140.05;100.00;61859.38;4991192;28;19925;-70
2022/05/22 08:40:55;;;;;;;;;;;;;;;-140.05;100.00;61859.38;4991253;28;20347;-74
2022/05/22 08:43:24;;;;;;;;;;;;;;;-140.05;100.00;61859.38;4993815;28;19922;-71
2022/05/22 08:46:07;;;;;;;;;;;;;;;-140.05;100.00;61859.38;4997040;28;19933;-72
2022/05/22 08:48:39;;;;;;;;;;;;;;;-140.05;100.00;61859.38;4990980;28;20021;-69
2022/05/22 08:51:10;;;;;;;;;;;;;;;-140.05;100.00;61859.38;4990727;28;19921;-74
2022/05/22 08:53:39;;;;;;;;;;;;;;;-140.05;100.00;61859.38;4990551;28;19929;-72
2022/05/22 08:59:08;;;;;;;;;;;;;;;-140.05;100.00;61859.38;4990463;28;19988;-72
2022/05/22 09:01:45;;;;;;;;;;;;;;;-140.05;100.00;61859.38;4990137;28;19922;-73
2022/05/22 09:04:12;;;;;;;;;;;;;;;-140.05;100.00;61859.38;4990525;28;20368;-75
2022/05/22 09:06:43;;;;;;;;;;;;;;;-140.05;100.00;61859.38;4990278;28;19980;-72
2022/05/22 09:09:10;;;;;;;;;;;;;;;-140.05;100.00;61859.38;4990170;28;19922;-71
2022/05/22 09:12:08;;;;;;;;;;;;;;;-140.05;100.00;61859.38;4990202;28;20380;-72
2022/05/22 09:14:34;;;;;;;;;;;;;;;-140.05;100.00;61859.38;4990533;28;19921;-75
2022/05/22 09:17:04;;;;;;;;;;;;;;;-140.05;100.00;61859.38;4990625;28;19969;-72
2022/05/22 09:19:39;;;;;;;1.00;0.68;;;;;;;-140.05;100.00;61859.38;4988870;28;20497;-70
2022/05/22 09:22:30;;;;;;;0.50;0.50;;;;;;;-140.05;100.00;61859.38;4971179;28;20234;-72
2022/05/22 09:25:18;;;;;;;0.10;0.10;;;;;;;-140.05;100.00;61859.38;4970418;28;20226;-69
2022/05/22 09:28:04;;;;;;;0.20;0.20;;;;;;;-140.05;100.00;61859.38;4970047;28;20206;-71
2022/05/22 09:30:41;;;;;;;0.30;0.30;;;;;;;-140.05;100.00;61859.38;4970173;28;20233;-71
2022/05/22 09:33:48;;;;;;;5.40;4.37;;;;;;;-140.05;100.00;61859.38;4970043;28;20702;-70
2022/05/22 09:36:43;;;;;;;0.97;0.97;;;;;;;-140.05;100.00;61859.38;4969729;28;20273;-74
2022/05/22 09:39:38;;;;;;;0.10;0.10;;;;;;;-140.05;100.00;61859.38;4969995;28;20217;-73
2022/05/22 09:42:45;;;;;;;0.30;0.30;;;;;;;-140.05;100.00;61859.38;4970215;28;20202;-71
2022/05/22 09:45:46;;;;;;;0.10;0.10;;;;;;;-140.05;100.00;61859.38;4970029;28;20210;-71
2022/05/22 09:48:28;;;;;;;0.30;0.30;;;;;;;-140.05;100.00;61859.38;4952768;28;20298;-72
2022/05/22 09:51:11;;;;;;;0.30;0.30;;;;;;;-140.05;100.00;61859.38;4969671;28;20710;-72
2022/05/22 09:54:00;;;;;;;0.20;0.20;;;;;;;-140.05;100.00;61859.38;4970027;28;20203;-74
2022/05/22 09:57:05;;;;;;;0.10;0.10;;;;;;;-140.05;100.00;61859.38;4970042;28;20206;-70
2022/05/22 09:59:50;;;;;;;0.10;0.10;;;;;;;-140.05;100.00;61859.38;4970065;28;20184;-68
2022/05/22 10:02:26;;;;;;;0.10;0.10;;;;;;;-140.05;100.00;61859.38;4970170;28;20203;-76
2022/05/22 10:05:07;;;;;;;0.83;0.70;;;;;;;-140.05;100.00;61859.38;4969816;28;20661;-72
2022/05/22 10:08:06;;;;;;;0.30;0.30;;;;;;;-140.05;100.00;61859.38;4987290;28;20198;-76
2022/05/22 10:10:46;;;;;;;0.10;0.10;;;;;;;-140.05;100.00;61859.38;4989034;28;20229;-72
2022/05/22 10:14:09;;;;;;;0.57;0.50;;;;;;;-140.05;100.00;61859.38;4989094;28;20217;-72
2022/05/22 10:16:38;;;;;;;0.93;0.93;;;;;;;-140.05;100.00;61859.38;4921126;28;20207;-70
2022/05/22 10:19:40;;;;;;;0.57;0.57;;;;;;;-140.05;100.00;61859.38;4992416;28;20641;-74
2022/05/22 10:22:44;;;;;;;0.20;0.20;;;;;;;-140.05;100.00;61859.38;4992596;28;20242;-71
2022/05/22 10:25:56;;;;;;;1.93;0.67;;;;;;;-140.05;100.00;61859.38;4992761;28;20717;-72
2022/05/22 10:28:30;;;;;;;1.23;1.13;;;;;;;-140.05;100.00;61859.38;4990044;28;20210;-74
2022/05/22 10:31:03;;;;;;;0.43;0.43;;;;;;;-140.05;100.00;61859.38;4993222;28;20348;-71
2022/05/22 10:33:57;;;;;;;0.93;0.50;;;;;;;-140.05;100.00;61859.38;4992541;28;20182;-76
2022/05/22 10:36:39;;;;;;;0.10;0.10;;;;;;;-140.05;100.00;61859.38;4982303;28;20213;-72
2022/05/22 10:39:10;;;;;;;0.53;0.53;;;;;;;-140.05;100.00;61859.38;4992578;28;20200;-73
2022/05/22 10:44:46;;;;;;;0.30;0.30;;;;;;;-140.05;100.00;61859.38;4992568;28;20229;-70
2022/05/22 10:47:13;;;;;;;0.30;0.30;;;;;;;-140.05;100.00;61859.38;4992279;28;20703;-69
2022/05/22 10:49:43;;;;;;;0.20;0.20;;;;;;;-140.05;100.00;61859.38;4992182;28;20268;-70
2022/05/22 10:52:13;;;;;;;0.43;0.43;;;;;;;-140.05;100.00;61859.38;4992523;28;20286;-68
2022/05/22 10:54:52;;;;;;;0.10;0.10;;;;;;;-140.05;100.00;61859.38;4992282;28;20194;-73
2022/05/22 10:57:22;;;;;;;1.03;0.77;;;;;;;-140.05;100.00;61859.38;4992185;28;20190;-71
2022/05/22 10:59:50;;;;;;;0.63;0.63;;;;;;;-140.05;100.00;61859.38;4992557;28;20199;-72
2022/05/22 11:02:26;;;;;;;0.60;0.53;;;;;;;-140.05;100.00;61859.38;4992436;28;20212;-72
2022/05/22 11:04:55;;;;;;;0.20;0.20;;;;;;;-140.05;100.00;61859.38;4991349;28;20325;-71
2022/05/22 11:07:31;;;;;;;0.53;0.53;;;;;;;-140.05;100.00;61859.38;4992221;28;20221;-73
2022/05/22 11:10:10;;;;;;;0.20;0.20;;;;;;;-140.05;100.00;61859.38;4992001;28;20205;-68
2022/05/22 11:12:48;;;;;;;0.30;0.30;;;;;;;-140.05;100.00;61859.38;4991935;28;20209;-69
2022/05/22 11:15:27;;;;;;;0.20;0.20;;;;;;;-140.05;100.00;61859.38;4992407;28;20578;-71
2022/05/22 11:18:06;;;;;;;0.13;0.13;;;;;;;-140.05;100.00;61859.38;4991913;28;20205;-69
2022/05/22 11:20:33;;;;;;;0.30;0.30;;;;;;;-140.05;100.00;61859.38;4991904;28;20347;-69
2022/05/22 11:23:00;;;;;;;0.37;0.37;;;;;;;-140.05;100.00;61859.38;4992202;28;20217;-69
2022/05/22 11:25:49;;;;;;;0.13;0.13;;;;;;;-140.05;100.00;61859.38;4991715;28;20230;-68
2022/05/22 11:28:39;;;;;;;0.33;0.33;;;;;;;-140.05;100.00;61859.38;4991831;28;20674;-69
2022/05/22 11:31:24;;;;;;;0.10;0.10;;;;;;;-140.05;100.00;61859.38;4991637;28;20198;-69
2022/05/22 11:34:12;;;;;;;0.10;0.10;;;;;;;-140.05;100.00;61859.38;4991480;28;20758;-68
2022/05/22 11:36:59;;;;;;;0.87;0.87;;;;;;;-140.05;100.00;61859.38;4991945;28;20210;-70
2022/05/22 11:39:59;;;;;;;1.43;0.87;;;;;;;-140.05;100.00;61859.38;4992071;28;20262;-68
2022/05/22 11:42:35;;;;;;;0.73;0.50;;;;;;;-140.05;100.00;61859.38;4992084;28;20221;-69
2022/05/22 11:45:36;;;;;;;0.40;0.40;;;;;;;-140.05;100.00;61859.38;4991577;28;20320;-67
2022/05/22 11:48:25;;;;;;;0.20;0.20;;;;;;;-140.05;100.00;61859.38;4991152;28;20197;-68
2022/05/22 11:51:17;;;;;;;1.40;1.30;;;;;;;-140.05;100.00;61859.38;4991512;28;20202;-72
2022/05/22 11:54:04;;;;;;;0.77;0.77;;;;;;;-140.05;100.00;61859.38;4991320;28;20199;-68
2022/05/22 11:56:41;;;;;;;0.20;0.20;;;;;;;-140.05;100.00;61859.38;4991288;28;20269;-67
2022/05/22 11:59:20;;;;;;;0.47;0.47;;;;;;;-140.05;100.00;61859.38;4990877;28;20195;-70
2022/05/22 12:02:17;;;;;;;0.20;0.20;;;;;;;-140.05;100.00;61859.38;4973994;28;20875;-68
2022/05/22 12:04:50;;;;;;;0.30;0.30;;;;;;;-140.05;100.00;61859.38;4971035;28;20617;-68
2022/05/22 12:07:23;;;;;;;0.50;0.40;;;;;;;-140.05;100.00;61859.38;4971817;28;20192;-67
2022/05/22 12:10:02;;;;;;;3.97;1.17;;;;;;;-140.05;100.00;61859.38;4971273;28;20222;-67
2022/05/22 12:12:43;;;;;;;0.70;0.70;;;;;;;-140.05;100.00;61859.38;4970749;28;20209;-69
2022/05/22 12:15:36;;;;;;;0.20;0.20;;;;;;;-140.05;100.00;61859.38;4970461;28;20199;-71
2022/05/22 12:18:40;;;;;;;2.23;0.63;;;;;;;-140.05;100.00;61859.38;4971206;28;20662;-69
2022/05/22 12:21:22;;;;;;;0.30;0.30;;;;;;;-140.05;100.00;61859.38;4971172;28;20254;-69
2022/05/22 12:23:52;;;;;;;0.83;0.80;;;;;;;-140.05;100.00;61859.38;4971350;28;20279;-69
2022/05/22 12:26:22;;;;;;;0.60;0.50;;;;;;;-140.05;100.00;61859.38;4971270;28;20195;-68